Time,TemperatureF,DewpointF,PressureIn,WindDirection,WindDirectionDegrees,WindSpeedMPH,WindSpeedGustMPH,Humidity,HourlyPrecipIn,Conditions,Clouds,dailyrainin,SoftwareType,DateUTC
2013-04-10 00:02:00,46.0,43.0,30.27,South,191,0.0,2.0,89,0.00,,,0.00,,2013-04-10 07:02:00,
2013-04-10 00:11:00,46.0,43.0,30.27,South,191,0.0,2.0,89,0.00,,,0.00,,2013-04-10 07:11:00,
2013-04-10 00:22:00,46.0,43.0,30.27,South,191,0.0,2.0,89,0.00,,,0.00,,2013-04-10 07:22:00,
2013-04-10 00:32:00,46.0,43.0,30.27,South,191,0.0,2.0,90,0.00,,,0.00,,2013-04-10 07:32:00,
2013-04-10 00:42:00,46.0,43.0,30.27,South,191,0.0,2.0,90,0.00,,,0.00,,2013-04-10 07:42:00,
2013-04-10 00:52:00,46.0,43.0,30.28,South,191,0.0,3.0,90,0.00,,,0.00,,2013-04-10 07:52:00,
2013-04-10 01:01:00,46.0,43.0,30.28,South,171,3.0,6.0,90,0.00,,,0.00,,2013-04-10 08:01:00,
2013-04-10 01:11:00,46.0,43.0,30.28,South,171,3.0,6.0,90,0.00,,,0.00,,2013-04-10 08:11:00,
2013-04-10 01:22:00,47.0,44.0,30.28,South,185,5.0,7.0,89,0.00,,,0.00,,2013-04-10 08:22:00,
2013-04-10 01:32:00,48.0,45.0,30.27,SSW,194,2.0,6.0,88,0.00,,,0.00,,2013-04-10 08:32:00,
2013-04-10 01:42:00,48.0,45.0,30.27,SSW,194,2.0,6.0,88,0.00,,,0.00,,2013-04-10 08:42:00,
2013-04-10 01:52:00,48.0,44.0,30.27,South,191,4.0,10.0,86,0.00,,,0.00,,2013-04-10 08:52:00,
2013-04-10 02:02:00,49.0,45.0,30.27,SSE,164,3.0,6.0,86,0.00,,,0.00,,2013-04-10 09:02:00,
2013-04-10 02:12:00,48.0,43.0,30.27,South,187,5.0,9.0,84,0.00,,,0.00,,2013-04-10 09:12:00,
2013-04-10 02:22:00,48.0,43.0,30.27,South,187,5.0,9.0,84,0.00,,,0.00,,2013-04-10 09:22:00,
2013-04-10 02:32:00,49.0,44.0,30.26,South,172,3.0,5.0,84,0.00,,,0.00,,2013-04-10 09:32:00,
2013-04-10 02:42:00,49.0,44.0,30.26,South,172,3.0,5.0,84,0.00,,,0.00,,2013-04-10 09:42:00,
2013-04-10 02:53:00,49.0,44.0,30.26,South,189,3.0,7.0,83,0.00,,,0.00,,2013-04-10 09:53:00,
2013-04-10 03:02:00,50.0,44.0,30.26,SE,140,6.0,10.0,81,0.00,,,0.00,,2013-04-10 10:02:00,
2013-04-10 03:12:00,51.0,45.0,30.25,South,188,4.0,12.0,79,0.00,,,0.00,,2013-04-10 10:12:00,
2013-04-10 03:23:00,51.0,45.0,30.25,South,188,4.0,12.0,79,0.00,,,0.00,,2013-04-10 10:23:00,
2013-04-10 03:33:00,51.0,45.0,30.25,South,171,7.0,11.0,81,0.00,,,0.00,,2013-04-10 10:33:00,
2013-04-10 03:42:00,51.0,45.0,30.25,South,171,7.0,11.0,81,0.00,,,0.00,,2013-04-10 10:42:00,
2013-04-10 03:52:00,50.0,45.0,30.25,South,183,6.0,11.0,82,0.00,,,0.00,,2013-04-10 10:52:00,
2013-04-10 04:02:00,50.0,45.0,30.25,SSW,200,6.0,13.0,83,0.00,,,0.00,,2013-04-10 11:02:00,
2013-04-10 04:12:00,50.0,45.0,30.25,SSW,200,6.0,13.0,83,0.00,,,0.00,,2013-04-10 11:12:00,
2013-04-10 04:22:00,50.0,46.0,30.26,SSW,198,8.0,13.0,85,0.00,,,0.00,,2013-04-10 11:22:00,
2013-04-10 04:32:00,49.0,45.0,30.25,South,179,10.0,14.0,87,0.00,,,0.00,,2013-04-10 11:32:00,
2013-04-10 04:42:00,49.0,45.0,30.25,South,179,10.0,14.0,87,0.00,,,0.00,,2013-04-10 11:42:00,
2013-04-10 04:52:00,49.0,46.0,30.25,South,183,12.0,15.0,89,0.00,,,0.00,,2013-04-10 11:52:00,
2013-04-10 05:02:00,49.0,46.0,30.25,SSW,202,12.0,18.0,91,0.00,,,0.00,,2013-04-10 12:02:00,
2013-04-10 05:12:00,49.0,46.0,30.25,SSW,202,12.0,18.0,91,0.00,,,0.00,,2013-04-10 12:12:00,
2013-04-10 05:21:00,50.0,48.0,30.24,SSW,201,13.0,18.0,92,0.00,,,0.00,,2013-04-10 12:21:00,
2013-04-10 05:32:00,50.0,48.0,30.24,SSW,203,15.0,20.0,92,0.00,,,0.00,,2013-04-10 12:32:00,
2013-04-10 05:42:00,50.0,48.0,30.24,SSW,203,15.0,20.0,92,0.00,,,0.00,,2013-04-10 12:42:00,
2013-04-10 05:51:00,50.0,48.0,30.24,South,184,15.0,21.0,92,0.00,,,0.00,,2013-04-10 12:51:00,
2013-04-10 06:01:00,50.0,48.0,30.25,South,185,14.0,22.0,93,0.00,,,0.00,,2013-04-10 13:01:00,
2013-04-10 06:12:00,50.0,48.0,30.25,South,185,14.0,22.0,93,0.00,,,0.00,,2013-04-10 13:12:00,
2013-04-10 06:21:00,50.0,48.0,30.24,South,190,14.0,22.0,93,0.00,,,0.00,,2013-04-10 13:21:00,
2013-04-10 06:32:00,50.0,48.0,30.24,South,180,15.0,22.0,93,0.00,,,0.00,,2013-04-10 13:32:00,
2013-04-10 06:42:00,50.0,48.0,30.24,South,180,15.0,22.0,93,0.00,,,0.00,,2013-04-10 13:42:00,
2013-04-10 06:52:00,50.0,48.0,30.24,South,180,15.0,22.0,93,0.00,,,0.00,,2013-04-10 13:52:00,
2013-04-10 07:02:00,50.0,48.0,30.23,South,190,12.0,22.0,93,0.00,,,0.00,,2013-04-10 14:02:00,
2013-04-10 07:12:00,50.0,48.0,30.23,South,190,12.0,22.0,93,0.00,,,0.00,,2013-04-10 14:12:00,
2013-04-10 07:32:00,51.0,49.0,30.22,SSW,202,12.0,19.0,93,0.01,,,0.01,,2013-04-10 14:32:00,
2013-04-10 07:42:00,51.0,49.0,30.22,SSW,202,12.0,19.0,93,0.01,,,0.01,,2013-04-10 14:42:00,
2013-04-10 07:52:00,51.0,49.0,30.22,South,173,17.0,23.0,93,0.01,,,0.01,,2013-04-10 14:52:00,
2013-04-10 08:02:00,51.0,49.0,30.23,South,189,14.0,20.0,93,0.01,,,0.01,,2013-04-10 15:02:00,
2013-04-10 08:12:00,51.0,49.0,30.23,South,189,14.0,20.0,93,0.01,,,0.01,,2013-04-10 15:12:00,
2013-04-10 08:22:00,51.0,49.0,30.23,South,173,18.0,28.0,93,0.02,,,0.02,,2013-04-10 15:22:00,
2013-04-10 08:32:00,51.0,49.0,30.24,SSW,193,20.0,28.0,93,0.01,,,0.02,,2013-04-10 15:32:00,
2013-04-10 08:42:00,51.0,49.0,30.24,SSW,193,20.0,28.0,93,0.01,,,0.02,,2013-04-10 15:42:00,
2013-04-10 08:52:00,51.0,49.0,30.24,SSW,196,20.0,30.0,94,0.02,,,0.03,,2013-04-10 15:52:00,
2013-04-10 09:02:00,50.0,48.0,30.24,South,181,23.0,32.0,94,0.02,,,0.03,,2013-04-10 16:02:00,
2013-04-10 09:12:00,50.0,48.0,30.24,South,181,23.0,32.0,94,0.02,,,0.03,,2013-04-10 16:12:00,
2013-04-10 09:22:00,50.0,48.0,30.23,South,184,16.0,29.0,94,0.03,,,0.05,,2013-04-10 16:22:00,
2013-04-10 09:32:00,50.0,48.0,30.23,SSW,194,21.0,30.0,94,0.04,,,0.06,,2013-04-10 16:32:00,
2013-04-10 09:42:00,50.0,48.0,30.23,SSW,194,21.0,30.0,94,0.04,,,0.06,,2013-04-10 16:42:00,
2013-04-10 09:52:00,50.0,48.0,30.22,SSE,168,22.0,33.0,94,0.03,,,0.06,,2013-04-10 16:52:00,
2013-04-10 10:02:00,50.0,48.0,30.23,South,183,19.0,32.0,94,0.03,,,0.06,,2013-04-10 17:02:00,
2013-04-10 10:12:00,50.0,49.0,30.24,South,177,18.0,28.0,95,0.02,,,0.07,,2013-04-10 17:12:00,
2013-04-10 10:22:00,50.0,49.0,30.24,South,177,18.0,28.0,95,0.02,,,0.07,,2013-04-10 17:22:00,
2013-04-10 10:42:00,50.0,49.0,30.23,SSW,194,20.0,30.0,95,0.06,,,0.12,,2013-04-10 17:42:00,
2013-04-10 10:52:00,50.0,49.0,30.24,SSE,161,20.0,30.0,95,0.09,,,0.15,,2013-04-10 17:52:00,
2013-04-10 11:12:00,50.0,49.0,30.26,South,181,19.0,29.0,95,0.09,,,0.15,,2013-04-10 18:12:00,
2013-04-10 11:22:00,50.0,49.0,30.27,South,185,18.0,27.0,95,0.08,,,0.16,,2013-04-10 18:22:00,
2013-04-10 11:32:00,50.0,49.0,30.27,SSW,198,18.0,24.0,95,0.04,,,0.16,,2013-04-10 18:32:00,
2013-04-10 11:42:00,50.0,49.0,30.27,SSW,198,18.0,24.0,95,0.04,,,0.16,,2013-04-10 18:42:00,
2013-04-10 11:52:00,50.0,49.0,30.28,SSW,205,17.0,23.0,96,0.02,,,0.17,,2013-04-10 18:52:00,
2013-04-10 12:02:00,51.0,50.0,30.29,SSW,206,18.0,25.0,96,0.03,,,0.18,,2013-04-10 19:02:00,
2013-04-10 12:12:00,51.0,50.0,30.29,SSW,206,18.0,25.0,96,0.03,,,0.18,,2013-04-10 19:12:00,
2013-04-10 12:22:00,51.0,50.0,30.29,SW,236,10.0,17.0,96,0.02,,,0.18,,2013-04-10 19:22:00,
2013-04-10 12:32:00,52.0,51.0,30.29,WSW,246,8.0,11.0,96,0.02,,,0.18,,2013-04-10 19:32:00,
2013-04-10 12:42:00,52.0,51.0,30.29,WSW,246,8.0,11.0,96,0.02,,,0.18,,2013-04-10 19:42:00,
2013-04-10 12:52:00,52.0,51.0,30.29,WSW,239,6.0,10.0,96,0.01,,,0.18,,2013-04-10 19:52:00,
2013-04-10 13:02:00,51.0,50.0,30.29,WSW,237,6.0,10.0,96,0.00,,,0.18,,2013-04-10 20:02:00,
2013-04-10 13:12:00,51.0,50.0,30.29,WSW,237,6.0,10.0,96,0.00,,,0.18,,2013-04-10 20:12:00,
2013-04-10 13:22:00,51.0,50.0,30.29,WSW,244,8.0,11.0,96,0.00,,,0.18,,2013-04-10 20:22:00,
2013-04-10 13:32:00,51.0,50.0,30.29,WSW,256,6.0,10.0,95,0.00,,,0.18,,2013-04-10 20:32:00,
2013-04-10 13:42:00,51.0,50.0,30.29,WSW,256,6.0,10.0,95,0.00,,,0.18,,2013-04-10 20:42:00,
2013-04-10 13:52:00,51.0,50.0,30.29,West,279,9.0,12.0,95,0.00,,,0.18,,2013-04-10 20:52:00,
2013-04-10 14:02:00,51.0,50.0,30.29,WNW,283,9.0,11.0,95,0.00,,,0.18,,2013-04-10 21:02:00,
2013-04-10 14:12:00,51.0,50.0,30.29,WNW,283,9.0,11.0,95,0.00,,,0.18,,2013-04-10 21:12:00,
2013-04-10 14:22:00,51.0,50.0,30.30,WNW,296,7.0,12.0,95,0.00,,,0.18,,2013-04-10 21:22:00,
2013-04-10 14:32:00,50.0,49.0,30.31,WNW,296,8.0,11.0,95,0.00,,,0.18,,2013-04-10 21:32:00,
2013-04-10 14:42:00,50.0,49.0,30.31,WNW,296,8.0,11.0,95,0.00,,,0.18,,2013-04-10 21:42:00,
2013-04-10 14:52:00,50.0,49.0,30.32,NW,317,10.0,12.0,95,0.00,,,0.18,,2013-04-10 21:52:00,
2013-04-10 15:02:00,50.0,49.0,30.32,NNW,338,13.0,17.0,95,0.00,,,0.18,,2013-04-10 22:02:00,
2013-04-10 15:12:00,50.0,49.0,30.32,NNW,338,13.0,17.0,95,0.00,,,0.18,,2013-04-10 22:12:00,
2013-04-10 15:22:00,50.0,49.0,30.33,North,355,13.0,16.0,95,0.00,,,0.18,,2013-04-10 22:22:00,
2013-04-10 15:33:00,51.0,49.0,30.33,North,5,13.0,18.0,94,0.00,,,0.18,,2013-04-10 22:33:00,
2013-04-10 15:42:00,51.0,49.0,30.33,North,5,13.0,18.0,94,0.00,,,0.18,,2013-04-10 22:42:00,
2013-04-10 15:52:00,51.0,49.0,30.33,North,358,13.0,17.0,93,0.00,,,0.18,,2013-04-10 22:52:00,
2013-04-10 16:02:00,51.0,49.0,30.34,North,350,12.0,16.0,92,0.00,,,0.18,,2013-04-10 23:02:00,
2013-04-10 16:12:00,51.0,49.0,30.34,North,350,12.0,16.0,92,0.00,,,0.18,,2013-04-10 23:12:00,
2013-04-10 16:22:00,51.0,48.0,30.33,North,356,14.0,18.0,91,0.00,,,0.18,,2013-04-10 23:22:00,
2013-04-10 16:32:00,51.0,48.0,30.33,North,356,14.0,18.0,91,0.00,,,0.18,,2013-04-10 23:32:00,
2013-04-10 16:42:00,51.0,48.0,30.33,North,356,14.0,18.0,91,0.00,,,0.18,,2013-04-10 23:42:00,
2013-04-10 16:52:00,51.0,48.0,30.33,North,358,14.0,18.0,91,0.00,,,0.18,,2013-04-10 23:52:00,
2013-04-10 17:02:00,52.0,49.0,30.33,NNE,13,14.0,18.0,91,0.00,,,0.18,,2013-04-11 00:02:00,
2013-04-10 17:12:00,52.0,49.0,30.33,NNE,13,14.0,18.0,91,0.00,,,0.18,,2013-04-11 00:12:00,
2013-04-10 17:22:00,51.0,48.0,30.33,North,350,11.0,16.0,90,0.00,,,0.18,,2013-04-11 00:22:00,
2013-04-10 17:32:00,51.0,48.0,30.33,North,350,8.0,15.0,90,0.00,,,0.18,,2013-04-11 00:32:00,
2013-04-10 17:42:00,51.0,48.0,30.33,North,350,8.0,15.0,90,0.00,,,0.18,,2013-04-11 00:42:00,
2013-04-10 17:52:00,51.0,48.0,30.33,North,355,9.0,12.0,90,0.00,,,0.18,,2013-04-11 00:52:00,
2013-04-10 18:02:00,51.0,48.0,30.32,North,4,10.0,13.0,90,0.00,,,0.18,,2013-04-11 01:02:00,
2013-04-10 18:12:00,51.0,48.0,30.32,North,4,10.0,13.0,90,0.00,,,0.18,,2013-04-11 01:12:00,
2013-04-10 18:22:00,51.0,48.0,30.32,North,355,9.0,14.0,89,0.00,,,0.18,,2013-04-11 01:22:00,
2013-04-10 18:32:00,51.0,48.0,30.33,North,349,9.0,12.0,88,0.00,,,0.18,,2013-04-11 01:32:00,
2013-04-10 18:42:00,51.0,48.0,30.33,North,349,9.0,12.0,88,0.00,,,0.18,,2013-04-11 01:42:00,
2013-04-10 18:52:00,51.0,48.0,30.33,NNW,340,10.0,13.0,88,0.00,,,0.18,,2013-04-11 01:52:00,
2013-04-10 19:02:00,51.0,48.0,30.33,North,354,11.0,14.0,88,0.00,,,0.18,,2013-04-11 02:02:00,
2013-04-10 19:12:00,51.0,48.0,30.33,North,354,11.0,14.0,88,0.00,,,0.18,,2013-04-11 02:12:00,
2013-04-10 19:22:00,51.0,48.0,30.32,North,351,12.0,15.0,88,0.00,,,0.18,,2013-04-11 02:22:00,
2013-04-10 19:32:00,50.0,47.0,30.33,North,356,10.0,16.0,88,0.00,,,0.18,,2013-04-11 02:32:00,
2013-04-10 19:42:00,50.0,47.0,30.33,North,356,10.0,16.0,88,0.00,,,0.18,,2013-04-11 02:42:00,
2013-04-10 19:52:00,50.0,47.0,30.32,North,349,13.0,17.0,88,0.00,,,0.18,,2013-04-11 02:52:00,
2013-04-10 20:02:00,50.0,47.0,30.33,North,356,14.0,16.0,88,0.00,,,0.18,,2013-04-11 03:02:00,
2013-04-10 20:12:00,50.0,47.0,30.33,North,356,14.0,16.0,88,0.00,,,0.18,,2013-04-11 03:12:00,
2013-04-10 20:22:00,49.0,46.0,30.33,North,356,14.0,17.0,88,0.00,,,0.18,,2013-04-11 03:22:00,
2013-04-10 20:33:00,49.0,46.0,30.33,North,352,11.0,15.0,89,0.00,,,0.18,,2013-04-11 03:33:00,
2013-04-10 20:43:00,49.0,46.0,30.33,North,352,11.0,15.0,89,0.00,,,0.18,,2013-04-11 03:43:00,
2013-04-10 20:53:00,49.0,46.0,30.33,North,352,11.0,15.0,89,0.00,,,0.18,,2013-04-11 03:53:00,
2013-04-10 21:03:00,49.0,46.0,30.33,North,352,11.0,15.0,89,0.00,,,0.18,,2013-04-11 04:03:00,
2013-04-10 21:12:00,49.0,46.0,30.33,NNW,344,11.0,16.0,90,0.00,,,0.18,,2013-04-11 04:12:00,
2013-04-10 21:22:00,49.0,46.0,30.33,NNW,344,11.0,16.0,90,0.00,,,0.18,,2013-04-11 04:22:00,
2013-04-10 21:33:00,48.0,45.0,30.34,NNW,347,12.0,15.0,90,0.00,,,0.18,,2013-04-11 04:33:00,
2013-04-10 21:42:00,48.0,45.0,30.34,NNW,347,12.0,15.0,90,0.00,,,0.18,,2013-04-11 04:42:00,
2013-04-10 21:52:00,48.0,45.0,30.34,NNW,343,12.0,14.0,90,0.00,,,0.18,,2013-04-11 04:52:00,
2013-04-10 22:02:00,48.0,45.0,30.35,NNW,347,13.0,16.0,90,0.00,,,0.18,,2013-04-11 05:02:00,
2013-04-10 22:12:00,48.0,45.0,30.35,NNW,347,13.0,16.0,90,0.00,,,0.18,,2013-04-11 05:12:00,
2013-04-10 22:22:00,48.0,45.0,30.35,NNW,345,12.0,14.0,90,0.00,,,0.18,,2013-04-11 05:22:00,
2013-04-10 22:32:00,48.0,45.0,30.36,NNW,348,12.0,14.0,90,0.00,,,0.18,,2013-04-11 05:32:00,
2013-04-10 22:42:00,48.0,45.0,30.36,NNW,348,12.0,14.0,90,0.00,,,0.18,,2013-04-11 05:42:00,
2013-04-10 22:52:00,48.0,45.0,30.36,NNE,31,6.0,12.0,89,0.00,,,0.18,,2013-04-11 05:52:00,
2013-04-10 23:02:00,46.0,43.0,30.36,NNE,16,3.0,8.0,90,0.00,,,0.18,,2013-04-11 06:02:00,
2013-04-10 23:12:00,46.0,43.0,30.36,NNE,16,3.0,8.0,90,0.00,,,0.18,,2013-04-11 06:12:00,
2013-04-10 23:22:00,46.0,43.0,30.37,NNE,27,3.0,7.0,90,0.00,,,0.18,,2013-04-11 06:22:00,
2013-04-10 23:32:00,46.0,44.0,30.37,NNE,25,2.0,5.0,91,0.00,,,0.18,,2013-04-11 06:32:00,
2013-04-10 23:42:00,46.0,44.0,30.37,NNE,25,2.0,5.0,91,0.00,,,0.18,,2013-04-11 06:42:00,
2013-04-10 23:52:00,46.0,44.0,30.37,NNE,23,0.0,5.0,91,0.00,,,0.18,,2013-04-11 06:52:00,